Latest Weather Observations for Telfer

IDW60801

Issued at 4:33 pm WST Tuesday 22 October 2019 (issued every 10 minutes, with the page automatically refreshed every 10 minutes)

About weather observations | Map of weather stations | Latest weather observations for WA | Other Formats
Station Details ID: 013030 Name: TELFER AERO Lat: -21.71 Lon: 122.23 Height: 291.9 m
Data from the previous 72 hours. | See also: Recent months at Telfer
Date/Time
WST
Temp
°C
App
Temp
°C
Dew
Point
°C
Rel
Hum
%
Delta-T
°C
Wind Press
QNH
hPa
Press
MSL
hPa
Rain since
9am
mm
Dir  Spd
km/h
Gust
km/h
Spd
kts
Gust
kts
22/04:30pm 37.7 33.8 3.4 12 18.4 S 13 26 7 14 1010.5 1008.5 0.0
22/04:00pm 37.8 34.7 3.5 12 18.4 NE 9 17 5 9 1010.3 1008.3 0.0
22/03:30pm 38.3 34.3 5.0 13 18.3 ESE 15 28 8 15 1010.3 1008.3 0.0
22/03:00pm 38.9 34.1 4.4 12 18.9 ESE 19 32 10 17 1010.5 1008.5 0.0
22/02:30pm 39.0 35.3 4.4 12 19.0 ESE 13 24 7 13 1010.7 1008.7 0.0
22/02:00pm 38.8 34.9 5.4 13 18.6 E 15 24 8 13 1011.2 1009.2 0.0
22/01:30pm 39.2 35.0 5.7 13 18.7 SSE 17 32 9 17 1011.6 1009.6 0.0
22/01:00pm 38.4 33.5 5.1 13 18.4 SE 20 39 11 21 1012.1 1010.1 0.0
22/12:30pm 37.6 33.0 5.6 14 17.7 ESE 19 30 10 16 1012.8 1010.8 0.0
22/12:00pm 37.2 31.8 6.3 15 17.3 SSE 24 33 13 18 1013.4 1011.4 0.0
22/11:30am 37.5 33.1 6.5 15 17.4 SSE 19 33 10 18 1013.9 1011.9 0.0
22/11:00am 37.9 33.6 6.8 15 17.6 ESE 19 28 10 15 1014.4 1012.4 0.0
22/10:30am 36.4 32.0 6.6 16 16.7 SSE 19 30 10 16 1015.0 1013.0 0.0
22/10:00am 35.2 31.2 6.5 17 15.9 SE 17 32 9 17 1015.5 1013.5 0.0
22/09:30am 35.6 31.6 8.4 19 15.6 SE 19 28 10 15 1015.7 1013.7 0.0
22/09:00am 33.5 29.9 8.2 21 14.3 ESE 17 26 9 14 1015.7 1013.7 0.0
22/08:30am 33.0 29.6 9.1 23 13.7 E 17 22 9 12 1015.6 1013.6 0.0
22/08:00am 31.5 27.7 9.1 25 12.7 E 19 26 10 14 1015.5 1013.5 0.0
22/07:30am 30.6 27.3 9.5 27 12.0 ESE 17 22 9 12 1015.5 1013.5 0.0
22/07:00am 30.1 26.2 9.6 28 11.7 ESE 20 26 11 14 1015.5 1013.5 0.0
22/06:30am 28.9 26.4 9.6 30 10.9 ESE 13 19 7 10 1015.6 1013.6 0.0
22/06:00am 26.7 24.5 9.5 34 9.6 SE 11 13 6 7 1015.1 1013.1 0.0
22/05:30am 25.6 24.7 9.4 36 9.0 E 4 6 2 3 1014.9 1012.9 0.0
22/05:00am 25.2 23.3 9.1 36 8.9 ESE 9 11 5 6 1014.7 1012.7 0.0
22/04:30am 26.0 23.7 8.9 34 9.4 ESE 11 13 6 7 1014.3 1012.3 0.0
22/04:00am 26.4 23.7 8.8 33 9.7 ESE 13 15 7 8 1014.1 1012.1 0.0
22/03:30am 27.4 26.1 9.3 32 10.1 NE 6 9 3 5 1014.0 1012.0 0.0
22/03:00am 28.4 26.5 9.2 30 10.8 S 9 11 5 6 1013.8 1011.8 0.0
22/02:30am 28.2 25.3 9.5 31 10.5 S 15 20 8 11 1014.2 1012.2 0.0
22/02:00am 28.3 25.8 9.6 31 10.5 S 13 17 7 9 1014.5 1012.5 0.0
22/01:30am 27.9 25.0 9.7 32 10.3 SSE 15 17 8 9 1014.9 1012.9 0.0
22/01:00am 28.3 24.6 9.6 31 10.5 SSE 19 24 10 13 1015.2 1013.2 0.0
22/12:30am 28.6 24.8 9.8 31 10.7 SE 20 26 11 14 1015.6 1013.6 0.0
22/12:00am 29.0 23.7 9.7 30 10.9 SSE 28 37 15 20 1015.9 1013.9 0.0
 
Date/Time
WST
Temp
°C
App
Temp
°C
Dew
Point
°C
Rel
Hum
%
Delta-T
°C
Wind Press
QNH
hPa
Press
MSL
hPa
Rain since
9am
mm
Dir  Spd
km/h
Gust
km/h
Spd
kts
Gust
kts
21/11:30pm 29.3 24.4 9.9 30 11.1 SE 26 35 14 19 1016.2 1014.3 0.0
21/11:00pm 29.5 25.4 10.1 30 11.1 SE 22 30 12 16 1016.6 1014.7 0.0
21/10:30pm 30.3 26.3 9.2 27 11.9 SSE 20 28 11 15 1016.4 1014.5 0.0
21/10:00pm 31.0 25.5 9.3 26 12.3 SSE 28 35 15 19 1016.4 1014.5 0.0
21/09:30pm 31.6 26.0 8.6 24 13.0 SSE 28 35 15 19 1016.5 1014.6 0.0
21/09:00pm 32.3 27.4 8.5 23 13.4 SSW 24 37 13 20 1016.0 1014.1 0.0
21/08:30pm 32.5 27.5 8.0 22 13.7 SW 24 37 13 20 1015.6 1013.6 0.0
21/08:00pm 32.7 27.3 8.2 22 13.8 SW 26 35 14 19 1015.2 1013.2 0.0
21/07:30pm 33.0 27.6 7.8 21 14.1 SW 26 35 14 19 1014.7 1012.7 0.0
21/07:00pm 33.4 26.7 7.4 20 14.5 WSW 32 37 17 20 1014.5 1012.5 0.0
21/06:30pm 34.4 29.5 6.7 18 15.4 SW 22 44 12 24 1014.2 1012.2 0.0
21/06:25pm 34.5 29.2 6.7 18 15.4 SW 24 48 13 26 1014.1 1012.1 0.0
21/06:00pm 35.0 27.1 6.3 17 15.9 SSW 37 50 20 27 1013.9 1011.9 0.0
21/05:50pm 35.2 27.6 5.6 16 16.2 S 35 46 19 25 1013.7 1011.7 0.0
21/05:30pm 35.6 28.6 5.9 16 16.4 SSE 32 43 17 23 1013.3 1011.3 0.0
21/05:01pm 35.6 29.3 5.9 16 16.4 SE 28 50 15 27 1012.9 1011.0 0.0
21/05:00pm 37.3 31.3 5.3 14 17.6 ESE 26 50 14 27 1012.8 1010.8 0.0
21/04:30pm 38.1 32.9 2.5 11 18.9 E 19 28 10 15 1012.1 1010.1 0.0
21/04:00pm 38.7 34.0 3.0 11 19.1 E 17 30 9 16 1012.1 1010.1 0.0
21/03:30pm 39.1 34.4 3.3 11 19.3 ESE 17 26 9 14 1012.0 1010.0 0.0
21/03:00pm 39.1 34.0 3.3 11 19.3 E 19 33 10 18 1012.1 1010.1 0.0
21/02:30pm 38.8 34.3 4.3 12 18.9 E 17 33 9 18 1012.5 1010.5 0.0
21/02:00pm 39.6 33.9 4.9 12 19.2 E 24 39 13 21 1012.9 1011.0 0.0
21/01:30pm 39.1 32.9 4.5 12 19.0 E 26 44 14 24 1013.6 1011.6 0.0
21/01:00pm 37.9 31.8 4.7 13 18.2 ENE 26 41 14 22 1014.1 1012.1 0.0
21/12:53pm 38.3 31.9 5.0 13 18.3 E 28 46 15 25 1014.2 1012.2 0.0
21/12:30pm 38.9 33.3 5.5 13 18.6 E 24 37 13 20 1014.7 1012.7 0.0
21/12:00pm 38.3 32.2 5.0 13 18.3 E 26 41 14 22 1015.3 1013.3 0.0
21/11:30am 38.4 33.0 6.2 14 18.1 ESE 24 32 13 17 1015.6 1013.6 0.0
21/11:00am 37.9 32.2 6.8 15 17.6 ENE 26 39 14 21 1016.2 1014.3 0.0
21/10:30am 37.7 32.6 7.6 16 17.2 ENE 24 35 13 19 1016.6 1014.7 0.0
21/10:00am 36.4 30.7 8.3 18 16.1 ENE 28 37 15 20 1017.0 1015.0 0.0
21/09:30am 35.9 29.3 8.7 19 15.7 ENE 33 46 18 25 1017.5 1015.5 0.0
21/09:00am 34.7 28.3 8.4 20 15.0 ENE 32 41 17 22 1017.8 1015.8 0.2
21/08:30am 32.3 26.2 9.8 25 13.0 E 32 41 17 22 1017.6 1015.6 0.2
21/08:00am 30.4 25.4 10.9 30 11.3 E 28 39 15 21 1017.6 1015.6 0.2
21/07:30am 28.5 25.3 12.0 36 9.7 ESE 20 26 11 14 1017.6 1015.6 0.2
21/07:00am 27.5 25.0 12.3 39 8.9 ESE 17 22 9 12 1017.3 1015.3 0.0
21/06:30am 27.7 25.0 11.7 37 9.3 ESE 17 22 9 12 1017.2 1015.2 0.0
21/06:00am 28.9 25.3 10.6 32 10.5 ESE 20 30 11 16 1016.8 1014.8 0.0
21/05:30am 28.6 22.8 10.8 33 10.3 ENE 32 39 17 21 1016.1 1014.2 0.0
21/05:00am 26.9 22.9 11.8 39 8.8 E 24 35 13 19 1017.0 1015.0 0.0
21/04:30am 26.5 22.5 11.8 40 8.5 ESE 24 30 13 16 1017.5 1015.5 0.0
21/04:00am 26.0 21.0 12.1 42 8.1 ESE 30 39 16 21 1017.9 1015.9 0.0
21/03:30am 25.6 20.7 12.4 43 7.7 SE 30 39 16 21 1018.3 1016.3 0.0
21/03:00am 25.0 20.2 12.9 47 7.1 SE 30 37 16 20 1018.4 1016.4 0.0
21/02:30am 24.8 20.9 13.4 49 6.7 SE 26 33 14 18 1018.4 1016.4 0.0
21/02:00am 24.7 19.5 13.3 49 6.7 ESE 33 44 18 24 1018.0 1016.0 0.0
21/01:30am 24.5 19.6 13.7 51 6.4 SE 32 43 17 23 1018.6 1016.6 0.0
21/01:00am 24.6 19.2 13.8 51 6.4 SE 35 43 19 23 1018.6 1016.6 0.0
21/12:30am 24.7 18.5 13.9 51 6.4 SE 39 48 21 26 1018.4 1016.4 0.0
21/12:00am 25.4 17.7 13.3 47 7.1 SE 46 61 25 33 1018.4 1016.4 0.0
 
Date/Time
WST
Temp
°C
App
Temp
°C
Dew
Point
°C
Rel
Hum
%
Delta-T
°C
Wind Press
QNH
hPa
Press
MSL
hPa
Rain since
9am
mm
Dir  Spd
km/h
Gust
km/h
Spd
kts
Gust
kts
20/11:30pm 25.5 18.5 13.7 48 7.0 SE 43 54 23 29 1018.8 1016.8 0.0
20/11:25pm 25.4 18.3 13.9 49 6.9 SE 44 56 24 30 1018.8 1016.8 0.0
20/11:00pm 25.9 19.3 13.7 47 7.3 SE 41 54 22 29 1019.0 1017.0 0.0
20/10:30pm 25.5 20.0 14.6 51 6.6 SE 37 46 20 25 1019.4 1017.5 0.0
20/10:22pm 25.5 19.2 14.6 51 6.6 SE 41 50 22 27 1019.4 1017.5 0.0
20/10:02pm 26.7 20.6 14.1 46 7.6 SE 39 50 21 27 1019.7 1017.8 0.0
20/10:00pm 26.6 20.6 14.4 47 7.4 SE 39 48 21 26 1019.8 1017.9 0.0
20/09:38pm 28.2 22.1 12.9 38 9.1 SSE 37 48 20 26 1019.6 1017.7 0.0
20/09:30pm 28.1 21.6 12.8 38 9.1 SSE 39 56 21 30 1019.6 1017.7 0.0
20/09:14pm 28.2 19.6 12.9 38 9.1 SSE 50 69 27 37 1018.8 1016.8 0.0
20/09:00pm 28.5 17.7 12.4 37 9.5 SSE 61 80 33 43 1017.8 1015.8 0.0
20/08:30pm 29.1 18.4 12.9 37 9.7 SSE 61 82 33 44 1017.4 1015.4 0.0
20/08:00pm 29.9 19.6 12.8 35 10.2 S 59 83 32 45 1017.0 1015.0 0.0
20/07:36pm 31.3 18.7 12.2 31 11.4 S 70 96 38 52 1016.0 1014.1 0.0
20/07:30pm 32.3 25.4 11.5 28 12.3 SSW 39 96 21 52 1016.0 1014.1 0.0
20/07:28pm 32.7 27.8 11.3 27 12.6 SSW 28 96 15 52 1016.0 1014.1 0.0
20/07:27pm 33.6 29.3 10.9 25 13.4 SSW 24 96 13 52 1016.0 1014.1 0.0
20/07:00pm 36.3 32.8 5.5 15 16.9 SSE 13 15 7 8 1013.9 1011.9 0.0
20/06:30pm 37.0 33.8 5.1 14 17.5 SSE 11 13 6 7 1013.2 1011.2 0.0
20/06:00pm 37.8 34.7 5.7 14 17.8 ESE 11 13 6 7 1012.6 1010.6 0.0
20/05:30pm 39.1 36.2 4.5 12 19.0 ESE 9 15 5 8 1012.1 1010.1 0.0
20/05:00pm 39.4 36.9 4.7 12 19.1 ENE 7 19 4 10 1011.8 1009.8 0.0
20/04:30pm 39.2 36.1 5.7 13 18.7 ENE 11 20 6 11 1011.7 1009.7 0.0
20/04:00pm 39.6 35.9 6.1 13 18.9 NE 15 20 8 11 1011.7 1009.7 0.0
20/03:30pm 39.9 36.7 5.1 12 19.3 ENE 11 17 6 9 1011.9 1009.9 0.0
20/03:00pm 40.0 36.1 5.2 12 19.4 ESE 15 30 8 16 1012.1 1010.1 0.0
20/02:30pm 40.6 36.8 5.7 12 19.6 SE 15 28 8 15 1012.3 1010.3 0.0
20/02:00pm 40.2 36.7 5.4 12 19.5 S 13 24 7 13 1012.6 1010.6 0.0
20/01:30pm 40.8 37.0 5.8 12 19.7 E 15 22 8 12 1013.2 1011.2 0.0
20/01:00pm 40.6 36.4 5.7 12 19.6 SE 17 32 9 17 1013.5 1011.5 0.0
20/12:30pm 40.0 37.5 6.4 13 19.0 SE 9 19 5 10 1013.9 1011.9 0.0
20/12:00pm 40.5 35.9 5.6 12 19.6 SE 19 33 10 18 1014.3 1012.3 0.0
20/11:30am 39.7 34.4 5.0 12 19.2 E 22 32 12 17 1014.8 1012.8 0.0
20/11:00am 38.6 34.5 4.1 12 18.8 SE 15 28 8 15 1015.3 1013.3 0.0
20/10:30am 37.9 33.5 4.7 13 18.2 ESE 17 24 9 13 1015.8 1013.8 0.0
20/10:00am 37.0 33.8 5.1 14 17.5 SSE 11 17 6 9 1016.1 1014.2 0.0
20/09:30am 37.9 33.9 4.7 13 18.2 SE 15 22 8 12 1016.3 1014.4 0.0
20/09:00am 36.7 33.5 4.9 14 17.3 SE 11 19 6 10 1016.5 1014.6 0.0
20/08:30am 35.2 32.5 5.6 16 16.2 SSW 9 15 5 8 1016.8 1014.8 0.0
20/08:00am 34.8 31.6 5.3 16 16.0 SW 11 17 6 9 1016.5 1014.6 0.0
20/07:30am 33.8 30.3 5.4 17 15.4 S 13 19 7 10 1016.6 1014.7 0.0
20/07:00am 32.4 29.4 5.8 19 14.4 SW 11 13 6 7 1016.4 1014.5 0.0
20/06:30am 31.4 28.5 6.5 21 13.6 SW 11 15 6 8 1016.4 1014.5 0.0
20/06:00am 28.0 25.8 6.2 25 11.6 WSW 7 9 4 5 1016.4 1014.5 0.0
20/05:30am 27.1 26.2 6.0 26 11.1 CALM 0 6 0 3 1016.4 1014.5 0.0
20/05:00am 26.3 24.1 5.3 26 10.9 SE 6 9 3 5 1016.2 1014.3 0.0
20/04:30am 27.3 26.0 6.1 26 11.2 NE 2 7 1 4 1016.1 1014.2 0.0
20/04:00am 27.4 24.3 5.6 25 11.4 E 11 15 6 8 1015.5 1013.5 0.0
20/03:30am 28.9 26.3 6.3 24 12.1 SSE 9 19 5 10 1015.1 1013.1 0.0
20/03:00am 30.8 27.5 6.6 22 13.2 WSW 13 22 7 12 1014.5 1012.5 0.0
20/02:30am 30.7 26.3 6.6 22 13.1 WSW 19 30 10 16 1014.2 1012.2 0.0
20/02:00am 31.1 25.4 6.9 22 13.2 WSW 26 39 14 21 1014.0 1012.0 0.0
20/01:30am 31.3 24.8 6.4 21 13.5 WSW 30 37 16 20 1014.1 1012.1 0.0
20/01:00am 31.3 25.5 6.4 21 13.5 W 26 32 14 17 1014.2 1012.2 0.0
20/12:30am 31.4 26.0 6.5 21 13.6 W 24 32 13 17 1014.4 1012.4 0.0
20/12:00am 31.8 26.3 6.1 20 13.9 W 24 32 13 17 1014.6 1012.6 0.0
 
Date/Time
WST
Temp
°C
App
Temp
°C
Dew
Point
°C
Rel
Hum
%
Delta-T
°C
Wind Press
QNH
hPa
Press
MSL
hPa
Rain since
9am
mm
Dir  Spd
km/h
Gust
km/h
Spd
kts
Gust
kts
19/11:30pm 32.3 26.6 6.5 20 14.1 W 26 32 14 17 1014.8 1012.8 0.0
19/11:00pm 32.4 27.1 6.6 20 14.1 WNW 24 32 13 17 1015.0 1013.0 0.0
19/10:30pm 32.9 26.7 6.2 19 14.6 WNW 28 33 15 18 1014.9 1012.9 0.0
19/10:00pm 33.5 27.8 5.1 17 15.3 WNW 24 32 13 17 1015.0 1013.0 0.0
19/09:30pm 33.9 28.5 4.6 16 15.7 WNW 22 26 12 14 1015.0 1013.0 0.0
19/09:00pm 34.2 29.3 3.9 15 16.1 WNW 19 20 10 11 1014.8 1012.8 0.0
19/08:30pm 35.0 30.0 3.5 14 16.7 WNW 19 22 10 12 1014.5 1012.5 0.0
19/08:00pm 36.0 30.8 3.3 13 17.3 WNW 20 24 11 13 1014.3 1012.3 0.0
19/07:30pm 36.0 31.9 2.1 12 17.6 WNW 13 17 7 9 1014.1 1012.1 0.0
19/07:00pm 36.6 32.9 2.6 12 17.9 WNW 11 13 6 7 1013.8 1011.8 0.0
19/06:30pm 37.8 33.1 1.0 10 19.0 NW 15 19 8 10 1013.3 1011.3 0.0
19/06:00pm 38.8 34.2 1.7 10 19.5 WNW 15 19 8 10 1012.9 1011.0 0.0
19/05:30pm 39.7 34.1 0.9 9 20.2 WNW 20 28 11 15 1012.6 1010.6 0.0
19/05:00pm 39.7 35.0 0.9 9 20.2 NW 15 24 8 13 1012.4 1010.4 0.0

Other formats

Comma delimited format used in spreadsheet applications
http://www.bom.gov.au/fwo/IDW60801/IDW60801.94319.axf

JavaScript Object Notation format (JSON) in row-major order
http://www.bom.gov.au/fwo/IDW60801/IDW60801.94319.json

Data quality

Most of these data are generated automatically and are frequently updated. Quality checks on data are not normally performed. It is possible for incorrect values to appear. Refer to information at About Latest Weather Observations and please check the disclaimer before using these data.